sensor_id;sensor_type;location;lat;lon;timestamp;temperature;humidity
18880;DHT22;9572;52.378;13.404;2024-02-14T00:00:07;2.50;99.90
18880;DHT22;9572;52.378;13.404;2024-02-14T00:02:37;2.50;99.90
18880;DHT22;9572;52.378;13.404;2024-02-14T00:05:05;2.60;99.90
18880;DHT22;9572;52.378;13.404;2024-02-14T00:07:32;2.60;99.90
18880;DHT22;9572;52.378;13.404;2024-02-14T00:09:59;2.60;99.90
18880;DHT22;9572;52.378;13.404;2024-02-14T00:12:27;2.60;99.90
18880;DHT22;9572;52.378;13.404;2024-02-14T00:14:54;2.70;99.90
18880;DHT22;9572;52.378;13.404;2024-02-14T00:17:21;2.70;99.90
18880;DHT22;9572;52.378;13.404;2024-02-14T00:19:48;2.70;99.90
18880;DHT22;9572;52.378;13.404;2024-02-14T00:22:15;2.70;99.90
18880;DHT22;9572;52.378;13.404;2024-02-14T00:24:42;2.70;99.90
18880;DHT22;9572;52.378;13.404;2024-02-14T00:27:09;2.70;99.90
18880;DHT22;9572;52.378;13.404;2024-02-14T00:29:37;2.70;99.90
18880;DHT22;9572;52.378;13.404;2024-02-14T00:32:05;2.70;99.90
18880;DHT22;9572;52.378;13.404;2024-02-14T00:34:32;2.70;99.90
18880;DHT22;9572;52.378;13.404;2024-02-14T00:36:59;2.70;99.90
18880;DHT22;9572;52.378;13.404;2024-02-14T00:39:26;2.70;99.90
18880;DHT22;9572;52.378;13.404;2024-02-14T00:41:52;2.70;99.90
18880;DHT22;9572;52.378;13.404;2024-02-14T00:44:20;2.70;99.90
18880;DHT22;9572;52.378;13.404;2024-02-14T00:46:48;2.70;99.90
18880;DHT22;9572;52.378;13.404;2024-02-14T00:49:15;2.70;99.90
18880;DHT22;9572;52.378;13.404;2024-02-14T00:51:42;2.70;99.90
18880;DHT22;9572;52.378;13.404;2024-02-14T00:54:09;2.70;99.90
18880;DHT22;9572;52.378;13.404;2024-02-14T00:56:36;2.70;99.90
18880;DHT22;9572;52.378;13.404;2024-02-14T00:59:03;2.70;99.90
18880;DHT22;9572;52.378;13.404;2024-02-14T01:01:30;2.70;99.90
18880;DHT22;9572;52.378;13.404;2024-02-14T01:03:58;2.70;99.90
18880;DHT22;9572;52.378;13.404;2024-02-14T01:06:25;2.70;99.90
18880;DHT22;9572;52.378;13.404;2024-02-14T01:08:51;2.70;99.90
18880;DHT22;9572;52.378;13.404;2024-02-14T01:11:18;2.70;99.90
18880;DHT22;9572;52.378;13.404;2024-02-14T01:13:45;2.70;99.90
18880;DHT22;9572;52.378;13.404;2024-02-14T01:16:12;2.70;99.90
18880;DHT22;9572;52.378;13.404;2024-02-14T01:18:39;2.70;99.90
18880;DHT22;9572;52.378;13.404;2024-02-14T01:21:08;2.70;99.90
18880;DHT22;9572;52.378;13.404;2024-02-14T01:23:34;2.70;99.90
18880;DHT22;9572;52.378;13.404;2024-02-14T01:26:01;2.70;99.90
18880;DHT22;9572;52.378;13.404;2024-02-14T01:28:28;2.60;99.90
18880;DHT22;9572;52.378;13.404;2024-02-14T01:30:55;2.60;99.90
18880;DHT22;9572;52.378;13.404;2024-02-14T01:33:22;2.60;99.90
18880;DHT22;9572;52.378;13.404;2024-02-14T01:35:49;2.60;99.90
18880;DHT22;9572;52.378;13.404;2024-02-14T01:38:17;2.70;99.90
18880;DHT22;9572;52.378;13.404;2024-02-14T01:40:44;2.70;99.90
18880;DHT22;9572;52.378;13.404;2024-02-14T01:43:12;2.60;99.90
18880;DHT22;9572;52.378;13.404;2024-02-14T01:45:40;2.60;99.90
18880;DHT22;9572;52.378;13.404;2024-02-14T01:48:07;2.60;99.90
18880;DHT22;9572;52.378;13.404;2024-02-14T01:50:35;2.60;99.90
18880;DHT22;9572;52.378;13.404;2024-02-14T01:53:02;2.60;99.90
18880;DHT22;9572;52.378;13.404;2024-02-14T01:55:31;2.60;99.90
18880;DHT22;9572;52.378;13.404;2024-02-14T01:57:59;2.60;99.90
18880;DHT22;9572;52.378;13.404;2024-02-14T02:00:29;2.70;99.90
18880;DHT22;9572;52.378;13.404;2024-02-14T02:02:57;2.70;99.90
18880;DHT22;9572;52.378;13.404;2024-02-14T02:08:47;2.80;99.90
18880;DHT22;9572;52.378;13.404;2024-02-14T02:11:15;2.80;99.90
18880;DHT22;9572;52.378;13.404;2024-02-14T02:13:42;2.80;99.90
18880;DHT22;9572;52.378;13.404;2024-02-14T02:16:09;2.70;99.90
18880;DHT22;9572;52.378;13.404;2024-02-14T02:18:36;2.80;99.90
18880;DHT22;9572;52.378;13.404;2024-02-14T02:21:04;2.80;99.90
18880;DHT22;9572;52.378;13.404;2024-02-14T02:23:33;2.80;99.90
18880;DHT22;9572;52.378;13.404;2024-02-14T02:26:00;2.80;99.90
18880;DHT22;9572;52.378;13.404;2024-02-14T02:28:27;2.90;99.90
18880;DHT22;9572;52.378;13.404;2024-02-14T02:30:54;2.90;99.90
18880;DHT22;9572;52.378;13.404;2024-02-14T02:33:21;2.90;99.90
18880;DHT22;9572;52.378;13.404;2024-02-14T02:35:48;2.80;99.90
18880;DHT22;9572;52.378;13.404;2024-02-14T02:38:15;2.80;99.90
18880;DHT22;9572;52.378;13.404;2024-02-14T02:40:44;2.80;99.90
18880;DHT22;9572;52.378;13.404;2024-02-14T02:43:11;2.90;99.90
18880;DHT22;9572;52.378;13.404;2024-02-14T02:45:38;2.90;99.90
18880;DHT22;9572;52.378;13.404;2024-02-14T02:48:06;2.90;99.90
18880;DHT22;9572;52.378;13.404;2024-02-14T02:50:32;2.80;99.90
18880;DHT22;9572;52.378;13.404;2024-02-14T02:52:59;2.90;99.90
18880;DHT22;9572;52.378;13.404;2024-02-14T02:55:26;3.00;99.90
18880;DHT22;9572;52.378;13.404;2024-02-14T02:57:54;2.90;99.90
18880;DHT22;9572;52.378;13.404;2024-02-14T03:00:21;2.90;99.90
18880;DHT22;9572;52.378;13.404;2024-02-14T03:05:58;2.70;99.90
18880;DHT22;9572;52.378;13.404;2024-02-14T03:08:25;2.70;99.90
18880;DHT22;9572;52.378;13.404;2024-02-14T03:10:52;2.70;99.90
18880;DHT22;9572;52.378;13.404;2024-02-14T03:13:20;2.70;99.90
18880;DHT22;9572;52.378;13.404;2024-02-14T03:15:47;2.70;99.90
18880;DHT22;9572;52.378;13.404;2024-02-14T03:18:15;2.60;99.90
18880;DHT22;9572;52.378;13.404;2024-02-14T03:20:41;2.70;99.90
18880;DHT22;9572;52.378;13.404;2024-02-14T03:23:08;2.60;99.90
18880;DHT22;9572;52.378;13.404;2024-02-14T03:25:35;2.60;99.90
18880;DHT22;9572;52.378;13.404;2024-02-14T03:28:02;2.70;99.90
18880;DHT22;9572;52.378;13.404;2024-02-14T03:30:35;2.60;99.90
18880;DHT22;9572;52.378;13.404;2024-02-14T03:33:03;2.60;99.90
18880;DHT22;9572;52.378;13.404;2024-02-14T03:35:30;2.60;99.90
18880;DHT22;9572;52.378;13.404;2024-02-14T03:37:56;2.70;99.90
18880;DHT22;9572;52.378;13.404;2024-02-14T03:40:23;2.70;99.90
18880;DHT22;9572;52.378;13.404;2024-02-14T03:42:50;2.70;99.90
18880;DHT22;9572;52.378;13.404;2024-02-14T03:45:17;2.70;99.90
18880;DHT22;9572;52.378;13.404;2024-02-14T03:47:45;2.70;99.90
18880;DHT22;9572;52.378;13.404;2024-02-14T03:50:12;2.70;99.90
18880;DHT22;9572;52.378;13.404;2024-02-14T03:52:40;2.70;99.90
18880;DHT22;9572;52.378;13.404;2024-02-14T03:55:09;2.70;99.90
18880;DHT22;9572;52.378;13.404;2024-02-14T03:57:38;2.70;99.90
18880;DHT22;9572;52.378;13.404;2024-02-14T04:00:06;2.70;99.90
18880;DHT22;9572;52.378;13.404;2024-02-14T04:02:35;2.70;99.90
18880;DHT22;9572;52.378;13.404;2024-02-14T04:05:04;2.70;99.90
18880;DHT22;9572;52.378;13.404;2024-02-14T04:07:32;2.80;99.90
18880;DHT22;9572;52.378;13.404;2024-02-14T04:09:59;2.80;99.90
18880;DHT22;9572;52.378;13.404;2024-02-14T04:12:26;2.80;99.90
18880;DHT22;9572;52.378;13.404;2024-02-14T04:14:54;2.80;99.90
18880;DHT22;9572;52.378;13.404;2024-02-14T04:17:21;2.90;99.90
18880;DHT22;9572;52.378;13.404;2024-02-14T04:19:48;2.90;99.90
18880;DHT22;9572;52.378;13.404;2024-02-14T04:22:16;2.90;99.90
18880;DHT22;9572;52.378;13.404;2024-02-14T04:24:43;3.00;99.90
18880;DHT22;9572;52.378;13.404;2024-02-14T04:27:10;3.10;99.90
18880;DHT22;9572;52.378;13.404;2024-02-14T04:29:37;3.10;99.90
18880;DHT22;9572;52.378;13.404;2024-02-14T04:32:04;3.10;99.90
18880;DHT22;9572;52.378;13.404;2024-02-14T04:34:31;3.10;99.90
18880;DHT22;9572;52.378;13.404;2024-02-14T04:36:58;3.10;99.90
18880;DHT22;9572;52.378;13.404;2024-02-14T04:39:26;3.10;99.90
18880;DHT22;9572;52.378;13.404;2024-02-14T04:41:53;3.10;99.90
18880;DHT22;9572;52.378;13.404;2024-02-14T04:44:20;3.10;99.90
18880;DHT22;9572;52.378;13.404;2024-02-14T04:46:47;3.20;99.90
18880;DHT22;9572;52.378;13.404;2024-02-14T04:49:14;3.20;99.90
18880;DHT22;9572;52.378;13.404;2024-02-14T04:51:41;3.20;99.90
18880;DHT22;9572;52.378;13.404;2024-02-14T04:54:08;3.30;99.90
18880;DHT22;9572;52.378;13.404;2024-02-14T04:56:36;3.20;99.90
18880;DHT22;9572;52.378;13.404;2024-02-14T04:59:03;3.20;99.90
18880;DHT22;9572;52.378;13.404;2024-02-14T05:01:30;3.20;99.90
18880;DHT22;9572;52.378;13.404;2024-02-14T05:03:57;3.30;99.90
18880;DHT22;9572;52.378;13.404;2024-02-14T05:06:24;3.30;99.90
18880;DHT22;9572;52.378;13.404;2024-02-14T05:08:51;3.30;99.90
18880;DHT22;9572;52.378;13.404;2024-02-14T05:11:19;3.30;99.90
18880;DHT22;9572;52.378;13.404;2024-02-14T05:13:47;3.30;99.90
18880;DHT22;9572;52.378;13.404;2024-02-14T05:16:18;3.30;99.90
18880;DHT22;9572;52.378;13.404;2024-02-14T05:18:45;3.30;99.90
18880;DHT22;9572;52.378;13.404;2024-02-14T05:21:12;3.30;99.90
18880;DHT22;9572;52.378;13.404;2024-02-14T05:23:38;3.30;99.90
18880;DHT22;9572;52.378;13.404;2024-02-14T05:26:06;3.30;99.90
18880;DHT22;9572;52.378;13.404;2024-02-14T05:28:33;3.40;99.90
18880;DHT22;9572;52.378;13.404;2024-02-14T05:31:02;3.40;99.90
18880;DHT22;9572;52.378;13.404;2024-02-14T05:33:29;3.50;99.90
18880;DHT22;9572;52.378;13.404;2024-02-14T05:35:56;3.50;99.90
18880;DHT22;9572;52.378;13.404;2024-02-14T05:38:23;3.40;99.90
18880;DHT22;9572;52.378;13.404;2024-02-14T05:40:50;3.50;99.90
18880;DHT22;9572;52.378;13.404;2024-02-14T05:43:17;3.50;99.90
18880;DHT22;9572;52.378;13.404;2024-02-14T05:45:44;3.50;99.90
18880;DHT22;9572;52.378;13.404;2024-02-14T05:48:13;3.40;99.90
18880;DHT22;9572;52.378;13.404;2024-02-14T05:50:40;3.50;99.90
18880;DHT22;9572;52.378;13.404;2024-02-14T05:53:07;3.50;99.90
18880;DHT22;9572;52.378;13.404;2024-02-14T05:55:34;3.50;99.90
18880;DHT22;9572;52.378;13.404;2024-02-14T05:58:00;3.50;99.90
18880;DHT22;9572;52.378;13.404;2024-02-14T06:00:27;3.50;99.90
18880;DHT22;9572;52.378;13.404;2024-02-14T06:02:55;3.50;99.90
18880;DHT22;9572;52.378;13.404;2024-02-14T06:05:23;3.50;99.90
18880;DHT22;9572;52.378;13.404;2024-02-14T06:07:50;3.60;99.90
18880;DHT22;9572;52.378;13.404;2024-02-14T06:10:17;3.60;99.90
18880;DHT22;9572;52.378;13.404;2024-02-14T06:12:44;3.60;99.90
18880;DHT22;9572;52.378;13.404;2024-02-14T06:15:13;3.70;99.90
18880;DHT22;9572;52.378;13.404;2024-02-14T06:17:40;3.70;99.90
18880;DHT22;9572;52.378;13.404;2024-02-14T06:20:08;3.70;99.90
18880;DHT22;9572;52.378;13.404;2024-02-14T06:22:37;3.70;99.90
18880;DHT22;9572;52.378;13.404;2024-02-14T06:25:04;3.70;99.90
18880;DHT22;9572;52.378;13.404;2024-02-14T06:27:31;3.70;99.90
18880;DHT22;9572;52.378;13.404;2024-02-14T06:29:58;3.70;99.90
18880;DHT22;9572;52.378;13.404;2024-02-14T06:32:26;3.80;99.90
18880;DHT22;9572;52.378;13.404;2024-02-14T06:34:53;3.90;99.90
18880;DHT22;9572;52.378;13.404;2024-02-14T06:37:20;3.80;99.90
18880;DHT22;9572;52.378;13.404;2024-02-14T06:39:48;3.80;99.90
18880;DHT22;9572;52.378;13.404;2024-02-14T06:42:15;3.80;99.90
18880;DHT22;9572;52.378;13.404;2024-02-14T06:44:42;3.80;99.90
18880;DHT22;9572;52.378;13.404;2024-02-14T06:47:09;3.90;99.90
18880;DHT22;9572;52.378;13.404;2024-02-14T06:49:36;3.90;99.90
18880;DHT22;9572;52.378;13.404;2024-02-14T06:52:03;3.90;99.90
18880;DHT22;9572;52.378;13.404;2024-02-14T06:54:30;3.90;99.90
18880;DHT22;9572;52.378;13.404;2024-02-14T06:56:59;4.00;99.90
18880;DHT22;9572;52.378;13.404;2024-02-14T06:59:26;4.00;99.90
18880;DHT22;9572;52.378;13.404;2024-02-14T07:01:53;4.00;99.90
18880;DHT22;9572;52.378;13.404;2024-02-14T07:04:20;4.10;99.90
18880;DHT22;9572;52.378;13.404;2024-02-14T07:06:51;4.10;99.90
18880;DHT22;9572;52.378;13.404;2024-02-14T07:09:18;4.20;99.90
18880;DHT22;9572;52.378;13.404;2024-02-14T07:11:45;4.30;99.90
18880;DHT22;9572;52.378;13.404;2024-02-14T07:14:13;4.40;99.90
18880;DHT22;9572;52.378;13.404;2024-02-14T07:16:40;4.40;99.90
18880;DHT22;9572;52.378;13.404;2024-02-14T07:19:07;4.50;99.90
18880;DHT22;9572;52.378;13.404;2024-02-14T07:21:34;4.50;99.90
18880;DHT22;9572;52.378;13.404;2024-02-14T07:24:03;4.60;99.90
18880;DHT22;9572;52.378;13.404;2024-02-14T07:26:30;4.70;99.90
18880;DHT22;9572;52.378;13.404;2024-02-14T07:28:57;4.70;99.90
18880;DHT22;9572;52.378;13.404;2024-02-14T07:31:28;4.80;99.90
18880;DHT22;9572;52.378;13.404;2024-02-14T07:33:56;4.80;99.90
18880;DHT22;9572;52.378;13.404;2024-02-14T07:36:24;4.90;99.90
18880;DHT22;9572;52.378;13.404;2024-02-14T07:38:50;5.00;99.90
18880;DHT22;9572;52.378;13.404;2024-02-14T07:41:18;5.00;99.90
18880;DHT22;9572;52.378;13.404;2024-02-14T07:43:44;5.20;99.90
18880;DHT22;9572;52.378;13.404;2024-02-14T07:46:15;5.30;99.90
18880;DHT22;9572;52.378;13.404;2024-02-14T07:48:44;5.30;99.90
18880;DHT22;9572;52.378;13.404;2024-02-14T07:51:11;5.40;99.90
18880;DHT22;9572;52.378;13.404;2024-02-14T07:53:38;5.40;99.90
18880;DHT22;9572;52.378;13.404;2024-02-14T07:56:05;5.50;99.90
18880;DHT22;9572;52.378;13.404;2024-02-14T07:58:32;5.60;99.90
18880;DHT22;9572;52.378;13.404;2024-02-14T08:00:59;5.80;99.90
18880;DHT22;9572;52.378;13.404;2024-02-14T08:03:26;5.80;99.90
18880;DHT22;9572;52.378;13.404;2024-02-14T08:05:54;5.70;99.90
18880;DHT22;9572;52.378;13.404;2024-02-14T08:08:21;5.70;99.90
18880;DHT22;9572;52.378;13.404;2024-02-14T08:10:51;5.60;99.90
18880;DHT22;9572;52.378;13.404;2024-02-14T08:13:18;5.60;99.90
18880;DHT22;9572;52.378;13.404;2024-02-14T08:15:45;5.60;99.90
18880;DHT22;9572;52.378;13.404;2024-02-14T08:18:12;5.70;99.90
18880;DHT22;9572;52.378;13.404;2024-02-14T08:20:39;5.70;99.90
18880;DHT22;9572;52.378;13.404;2024-02-14T08:23:08;5.70;99.90
18880;DHT22;9572;52.378;13.404;2024-02-14T08:25:35;5.80;99.90
18880;DHT22;9572;52.378;13.404;2024-02-14T08:28:02;5.80;99.90
18880;DHT22;9572;52.378;13.404;2024-02-14T08:30:29;5.90;99.90
18880;DHT22;9572;52.378;13.404;2024-02-14T08:32:56;5.90;99.90
18880;DHT22;9572;52.378;13.404;2024-02-14T08:35:23;5.90;99.90
18880;DHT22;9572;52.378;13.404;2024-02-14T08:37:50;6.00;99.90
18880;DHT22;9572;52.378;13.404;2024-02-14T08:40:18;6.00;99.90
18880;DHT22;9572;52.378;13.404;2024-02-14T08:42:45;6.00;99.90
18880;DHT22;9572;52.378;13.404;2024-02-14T08:45:12;5.90;99.90
18880;DHT22;9572;52.378;13.404;2024-02-14T08:47:39;5.90;99.90
18880;DHT22;9572;52.378;13.404;2024-02-14T08:50:10;5.90;99.90
18880;DHT22;9572;52.378;13.404;2024-02-14T08:52:37;5.90;99.90
18880;DHT22;9572;52.378;13.404;2024-02-14T08:55:05;5.90;99.90
18880;DHT22;9572;52.378;13.404;2024-02-14T08:57:35;6.00;99.90
18880;DHT22;9572;52.378;13.404;2024-02-14T09:00:02;6.10;99.90
18880;DHT22;9572;52.378;13.404;2024-02-14T09:02:30;6.20;99.90
18880;DHT22;9572;52.378;13.404;2024-02-14T09:04:56;6.40;99.90
18880;DHT22;9572;52.378;13.404;2024-02-14T09:07:23;6.40;99.90
18880;DHT22;9572;52.378;13.404;2024-02-14T09:09:50;6.60;99.90
18880;DHT22;9572;52.378;13.404;2024-02-14T09:12:17;6.60;99.90
18880;DHT22;9572;52.378;13.404;2024-02-14T09:14:45;6.70;99.90
18880;DHT22;9572;52.378;13.404;2024-02-14T09:17:12;6.70;99.90
18880;DHT22;9572;52.378;13.404;2024-02-14T09:19:39;6.80;99.90
18880;DHT22;9572;52.378;13.404;2024-02-14T09:22:06;6.90;99.90
18880;DHT22;9572;52.378;13.404;2024-02-14T09:24:33;6.90;99.90
18880;DHT22;9572;52.378;13.404;2024-02-14T09:26:59;6.90;99.90
18880;DHT22;9572;52.378;13.404;2024-02-14T09:29:28;6.90;99.90
18880;DHT22;9572;52.378;13.404;2024-02-14T09:31:56;6.90;99.90
18880;DHT22;9572;52.378;13.404;2024-02-14T09:34:23;6.90;99.90
18880;DHT22;9572;52.378;13.404;2024-02-14T09:36:52;6.90;99.90
18880;DHT22;9572;52.378;13.404;2024-02-14T09:39:19;6.90;99.90
18880;DHT22;9572;52.378;13.404;2024-02-14T09:41:52;7.00;99.90
18880;DHT22;9572;52.378;13.404;2024-02-14T09:44:20;6.90;99.90
18880;DHT22;9572;52.378;13.404;2024-02-14T09:46:49;7.00;99.90
18880;DHT22;9572;52.378;13.404;2024-02-14T09:49:17;6.90;99.90
18880;DHT22;9572;52.378;13.404;2024-02-14T09:51:46;6.90;99.90
18880;DHT22;9572;52.378;13.404;2024-02-14T09:54:17;6.90;99.90
18880;DHT22;9572;52.378;13.404;2024-02-14T09:56:48;6.90;99.90
18880;DHT22;9572;52.378;13.404;2024-02-14T09:59:19;6.90;99.90
18880;DHT22;9572;52.378;13.404;2024-02-14T10:01:47;6.90;99.90
18880;DHT22;9572;52.378;13.404;2024-02-14T10:04:17;6.90;99.90
18880;DHT22;9572;52.378;13.404;2024-02-14T10:06:46;6.90;99.90
18880;DHT22;9572;52.378;13.404;2024-02-14T10:09:19;6.90;99.90
18880;DHT22;9572;52.378;13.404;2024-02-14T10:11:46;7.00;99.90
18880;DHT22;9572;52.378;13.404;2024-02-14T10:14:13;7.00;99.90
18880;DHT22;9572;52.378;13.404;2024-02-14T10:16:40;7.00;99.90
18880;DHT22;9572;52.378;13.404;2024-02-14T10:19:14;7.00;99.90
18880;DHT22;9572;52.378;13.404;2024-02-14T10:21:43;7.10;99.90
18880;DHT22;9572;52.378;13.404;2024-02-14T10:24:10;7.10;99.90
18880;DHT22;9572;52.378;13.404;2024-02-14T10:26:37;7.20;99.90
18880;DHT22;9572;52.378;13.404;2024-02-14T10:29:06;7.30;99.90
18880;DHT22;9572;52.378;13.404;2024-02-14T10:31:34;7.30;99.90
18880;DHT22;9572;52.378;13.404;2024-02-14T10:34:02;7.20;99.90
18880;DHT22;9572;52.378;13.404;2024-02-14T10:36:32;7.20;99.90
18880;DHT22;9572;52.378;13.404;2024-02-14T10:39:03;7.40;99.90
18880;DHT22;9572;52.378;13.404;2024-02-14T10:41:33;7.40;99.90
18880;DHT22;9572;52.378;13.404;2024-02-14T10:44:02;7.60;99.90
18880;DHT22;9572;52.378;13.404;2024-02-14T10:46:32;7.60;99.90
18880;DHT22;9572;52.378;13.404;2024-02-14T10:49:02;7.70;99.90
18880;DHT22;9572;52.378;13.404;2024-02-14T10:51:31;7.70;99.90
18880;DHT22;9572;52.378;13.404;2024-02-14T10:53:58;7.70;99.90
18880;DHT22;9572;52.378;13.404;2024-02-14T10:56:29;7.80;99.90
18880;DHT22;9572;52.378;13.404;2024-02-14T10:58:57;7.80;99.90
18880;DHT22;9572;52.378;13.404;2024-02-14T11:01:25;8.00;99.90
18880;DHT22;9572;52.378;13.404;2024-02-14T11:03:53;8.00;99.90
18880;DHT22;9572;52.378;13.404;2024-02-14T11:06:21;8.00;99.90
18880;DHT22;9572;52.378;13.404;2024-02-14T11:08:58;8.00;99.90
18880;DHT22;9572;52.378;13.404;2024-02-14T11:11:29;8.00;99.90
18880;DHT22;9572;52.378;13.404;2024-02-14T11:13:57;8.00;99.90
18880;DHT22;9572;52.378;13.404;2024-02-14T11:16:25;8.00;99.90
18880;DHT22;9572;52.378;13.404;2024-02-14T11:18:53;8.00;99.90
18880;DHT22;9572;52.378;13.404;2024-02-14T11:21:28;8.00;99.90
18880;DHT22;9572;52.378;13.404;2024-02-14T11:23:56;8.00;99.90
18880;DHT22;9572;52.378;13.404;2024-02-14T11:26:24;8.00;99.90
18880;DHT22;9572;52.378;13.404;2024-02-14T11:29:00;8.00;99.90
18880;DHT22;9572;52.378;13.404;2024-02-14T11:31:33;8.00;99.90
18880;DHT22;9572;52.378;13.404;2024-02-14T11:34:04;8.00;99.90
18880;DHT22;9572;52.378;13.404;2024-02-14T11:36:35;8.00;99.90
18880;DHT22;9572;52.378;13.404;2024-02-14T11:39:03;8.20;99.90
18880;DHT22;9572;52.378;13.404;2024-02-14T11:41:32;8.20;99.90
18880;DHT22;9572;52.378;13.404;2024-02-14T11:44:03;8.30;99.90
18880;DHT22;9572;52.378;13.404;2024-02-14T11:46:31;8.30;99.90
18880;DHT22;9572;52.378;13.404;2024-02-14T11:48:58;8.30;99.90
18880;DHT22;9572;52.378;13.404;2024-02-14T11:51:26;8.30;99.90
18880;DHT22;9572;52.378;13.404;2024-02-14T11:53:54;8.30;99.90
18880;DHT22;9572;52.378;13.404;2024-02-14T11:56:21;8.30;99.90
18880;DHT22;9572;52.378;13.404;2024-02-14T11:58:48;8.40;99.90
18880;DHT22;9572;52.378;13.404;2024-02-14T12:01:18;8.30;99.90
18880;DHT22;9572;52.378;13.404;2024-02-14T12:03:45;8.30;99.90
18880;DHT22;9572;52.378;13.404;2024-02-14T12:06:12;8.30;99.90
18880;DHT22;9572;52.378;13.404;2024-02-14T12:08:41;8.30;99.90
18880;DHT22;9572;52.378;13.404;2024-02-14T12:11:08;8.30;99.90
18880;DHT22;9572;52.378;13.404;2024-02-14T12:13:35;8.30;99.90
18880;DHT22;9572;52.378;13.404;2024-02-14T12:16:03;8.40;99.90
18880;DHT22;9572;52.378;13.404;2024-02-14T12:18:34;8.40;99.90
18880;DHT22;9572;52.378;13.404;2024-02-14T12:21:04;8.50;99.90
18880;DHT22;9572;52.378;13.404;2024-02-14T12:23:33;8.50;99.90
18880;DHT22;9572;52.378;13.404;2024-02-14T12:26:01;8.50;99.90
18880;DHT22;9572;52.378;13.404;2024-02-14T12:28:30;8.50;99.90
18880;DHT22;9572;52.378;13.404;2024-02-14T12:30:58;8.50;99.90
18880;DHT22;9572;52.378;13.404;2024-02-14T12:33:25;8.50;99.90
18880;DHT22;9572;52.378;13.404;2024-02-14T12:35:55;8.50;99.90
18880;DHT22;9572;52.378;13.404;2024-02-14T12:38:22;8.50;99.90
18880;DHT22;9572;52.378;13.404;2024-02-14T12:40:49;8.50;99.90
18880;DHT22;9572;52.378;13.404;2024-02-14T12:43:17;8.60;99.90
18880;DHT22;9572;52.378;13.404;2024-02-14T12:45:44;8.60;99.90
18880;DHT22;9572;52.378;13.404;2024-02-14T12:48:12;8.60;99.90
18880;DHT22;9572;52.378;13.404;2024-02-14T12:50:41;8.60;99.90
18880;DHT22;9572;52.378;13.404;2024-02-14T12:53:14;8.60;99.90
18880;DHT22;9572;52.378;13.404;2024-02-14T12:55:41;8.70;99.90
18880;DHT22;9572;52.378;13.404;2024-02-14T12:58:08;8.70;99.90
18880;DHT22;9572;52.378;13.404;2024-02-14T13:00:36;8.70;99.90
18880;DHT22;9572;52.378;13.404;2024-02-14T13:03:03;8.90;99.90
18880;DHT22;9572;52.378;13.404;2024-02-14T13:05:31;8.80;99.90
18880;DHT22;9572;52.378;13.404;2024-02-14T13:07:58;8.80;99.90
18880;DHT22;9572;52.378;13.404;2024-02-14T13:10:26;8.80;99.90
18880;DHT22;9572;52.378;13.404;2024-02-14T13:12:53;8.90;99.90
18880;DHT22;9572;52.378;13.404;2024-02-14T13:15:20;8.90;99.90
18880;DHT22;9572;52.378;13.404;2024-02-14T13:17:47;9.00;99.90
18880;DHT22;9572;52.378;13.404;2024-02-14T13:20:14;8.90;99.90
18880;DHT22;9572;52.378;13.404;2024-02-14T13:22:41;8.90;99.90
18880;DHT22;9572;52.378;13.404;2024-02-14T13:25:08;8.90;99.90
18880;DHT22;9572;52.378;13.404;2024-02-14T13:27:37;8.90;99.90
18880;DHT22;9572;52.378;13.404;2024-02-14T13:30:05;8.90;99.90
18880;DHT22;9572;52.378;13.404;2024-02-14T13:32:32;9.00;99.90
18880;DHT22;9572;52.378;13.404;2024-02-14T13:34:59;8.90;99.90
18880;DHT22;9572;52.378;13.404;2024-02-14T13:37:31;8.90;99.90
18880;DHT22;9572;52.378;13.404;2024-02-14T13:39:59;9.00;99.90
18880;DHT22;9572;52.378;13.404;2024-02-14T13:42:26;9.00;99.90
18880;DHT22;9572;52.378;13.404;2024-02-14T13:44:55;8.90;99.90
18880;DHT22;9572;52.378;13.404;2024-02-14T13:47:22;8.90;99.90
18880;DHT22;9572;52.378;13.404;2024-02-14T13:49:50;8.90;99.90
18880;DHT22;9572;52.378;13.404;2024-02-14T13:52:17;8.90;99.90
18880;DHT22;9572;52.378;13.404;2024-02-14T13:54:45;9.00;99.90
18880;DHT22;9572;52.378;13.404;2024-02-14T13:57:13;9.00;99.90
18880;DHT22;9572;52.378;13.404;2024-02-14T13:59:39;9.00;99.90
18880;DHT22;9572;52.378;13.404;2024-02-14T14:02:09;9.10;99.90
18880;DHT22;9572;52.378;13.404;2024-02-14T14:04:36;9.10;99.90
18880;DHT22;9572;52.378;13.404;2024-02-14T14:07:03;9.00;99.90
18880;DHT22;9572;52.378;13.404;2024-02-14T14:09:30;9.10;99.90
18880;DHT22;9572;52.378;13.404;2024-02-14T14:11:58;9.10;99.90
18880;DHT22;9572;52.378;13.404;2024-02-14T14:14:25;9.10;99.90
18880;DHT22;9572;52.378;13.404;2024-02-14T14:16:52;9.10;99.90
18880;DHT22;9572;52.378;13.404;2024-02-14T14:19:21;9.10;99.90
18880;DHT22;9572;52.378;13.404;2024-02-14T14:21:48;9.20;99.90
18880;DHT22;9572;52.378;13.404;2024-02-14T14:24:15;9.20;99.90
18880;DHT22;9572;52.378;13.404;2024-02-14T14:26:41;9.20;99.90
18880;DHT22;9572;52.378;13.404;2024-02-14T14:29:09;9.20;99.90
18880;DHT22;9572;52.378;13.404;2024-02-14T14:31:36;9.30;99.90
18880;DHT22;9572;52.378;13.404;2024-02-14T14:34:03;9.30;99.90
18880;DHT22;9572;52.378;13.404;2024-02-14T14:36:31;9.30;99.90
18880;DHT22;9572;52.378;13.404;2024-02-14T14:38:58;9.30;99.90
18880;DHT22;9572;52.378;13.404;2024-02-14T14:41:26;9.40;99.90
18880;DHT22;9572;52.378;13.404;2024-02-14T14:43:54;9.40;99.90
18880;DHT22;9572;52.378;13.404;2024-02-14T14:46:21;9.40;99.90
18880;DHT22;9572;52.378;13.404;2024-02-14T14:48:48;9.50;99.90
18880;DHT22;9572;52.378;13.404;2024-02-14T14:51:15;9.50;99.90
18880;DHT22;9572;52.378;13.404;2024-02-14T14:53:43;9.50;99.90
18880;DHT22;9572;52.378;13.404;2024-02-14T14:56:10;9.50;99.90
18880;DHT22;9572;52.378;13.404;2024-02-14T14:58:37;9.50;99.90
18880;DHT22;9572;52.378;13.404;2024-02-14T15:01:05;9.60;99.90
18880;DHT22;9572;52.378;13.404;2024-02-14T15:03:32;9.60;99.90
18880;DHT22;9572;52.378;13.404;2024-02-14T15:06:00;9.60;99.90
18880;DHT22;9572;52.378;13.404;2024-02-14T15:08:27;9.60;99.90
18880;DHT22;9572;52.378;13.404;2024-02-14T15:10:55;9.70;99.90
18880;DHT22;9572;52.378;13.404;2024-02-14T15:13:23;9.60;99.90
18880;DHT22;9572;52.378;13.404;2024-02-14T15:15:50;9.70;99.90
18880;DHT22;9572;52.378;13.404;2024-02-14T15:18:17;9.80;99.90
18880;DHT22;9572;52.378;13.404;2024-02-14T15:20:44;9.70;99.90
18880;DHT22;9572;52.378;13.404;2024-02-14T15:23:11;9.70;99.90
18880;DHT22;9572;52.378;13.404;2024-02-14T15:25:38;9.70;99.90
18880;DHT22;9572;52.378;13.404;2024-02-14T15:28:09;9.70;99.90
18880;DHT22;9572;52.378;13.404;2024-02-14T15:30:40;9.70;99.90
18880;DHT22;9572;52.378;13.404;2024-02-14T15:33:24;9.80;99.90
18880;DHT22;9572;52.378;13.404;2024-02-14T15:35:52;9.80;99.90
18880;DHT22;9572;52.378;13.404;2024-02-14T15:38:20;9.70;99.90
18880;DHT22;9572;52.378;13.404;2024-02-14T15:40:48;9.70;99.90
18880;DHT22;9572;52.378;13.404;2024-02-14T15:43:19;9.70;99.90
18880;DHT22;9572;52.378;13.404;2024-02-14T15:45:47;9.70;99.90
18880;DHT22;9572;52.378;13.404;2024-02-14T15:48:13;9.80;99.90
18880;DHT22;9572;52.378;13.404;2024-02-14T15:50:41;9.70;99.90
18880;DHT22;9572;52.378;13.404;2024-02-14T15:53:09;9.60;99.90